Time;durP1;ratioP1;P1;durP2;ratioP2;P2;SDS_P1;SDS_P2;PMS_P1;PMS_P2;Temp;Humidity;BMP_temperature;BMP_pressure;BME280_temperature;BME280_humidity;BME280_pressure;Samples;Min_cycle;Max_cycle;Signal;HPM_P1;HPM_P2
2022/09/18 00:02:02;;;;;;;6.38;3.65;;;17.40;94.00;;;;;;5047394;28;20267;-75
2022/09/18 00:04:29;;;;;;;3.17;1.98;;;17.40;94.10;;;;;;5050773;28;20215;-75
2022/09/18 00:06:55;;;;;;;2.53;0.88;;;17.40;94.20;;;;;;5055140;28;20186;-75
2022/09/18 00:09:21;;;;;;;1.25;0.68;;;17.40;93.90;;;;;;5051274;28;20186;-76
2022/09/18 00:11:49;;;;;;;0.60;0.60;;;17.30;93.90;;;;;;5048708;28;20180;-76
2022/09/18 00:14:18;;;;;;;0.52;0.52;;;17.30;93.80;;;;;;5047663;28;20195;-76
2022/09/18 00:16:44;;;;;;;1.15;0.60;;;17.30;93.00;;;;;;5046622;28;20211;-76
2022/09/18 00:19:11;;;;;;;0.43;0.43;;;17.30;93.20;;;;;;5053431;28;20175;-76
2022/09/18 00:21:40;;;;;;;0.65;0.40;;;17.20;92.60;;;;;;5048362;28;20246;-75
2022/09/18 00:24:06;;;;;;;0.50;0.30;;;17.00;91.60;;;;;;5048680;28;20326;-76
2022/09/18 00:26:33;;;;;;;0.50;0.40;;;16.80;91.30;;;;;;5049821;28;20207;-77
2022/09/18 00:28:58;;;;;;;0.30;0.30;;;16.60;91.00;;;;;;5050849;28;20187;-75
2022/09/18 00:31:35;;;;;;;0.20;0.20;;;16.60;90.80;;;;;;5062823;28;20240;-75
2022/09/18 00:34:04;;;;;;;0.20;0.20;;;16.40;90.60;;;;;;5046344;28;20265;-75
2022/09/18 00:36:30;;;;;;;0.30;0.30;;;16.30;90.70;;;;;;5047683;28;20246;-75
2022/09/18 00:38:58;;;;;;;0.22;0.22;;;16.20;90.20;;;;;;5050038;28;20188;-76
2022/09/18 00:41:30;;;;;;;0.13;0.13;;;16.00;90.30;;;;;;5043876;28;20669;-76
2022/09/18 00:44:34;;;;;;;0.10;0.10;;;15.80;89.40;;;;;;5049697;28;20198;-75
2022/09/18 00:47:15;;;;;;;0.10;0.10;;;15.40;88.40;;;;;;5011053;28;20675;-76
2022/09/18 00:49:53;;;;;;;0.10;0.10;;;15.00;88.20;;;;;;5008422;28;20255;-75
2022/09/18 00:52:22;;;;;;;1.80;0.10;;;14.80;88.60;;;;;;4994975;28;20220;-76
2022/09/18 00:55:01;;;;;;;0.10;0.10;;;14.70;88.40;;;;;;5012458;28;20657;-76
2022/09/18 00:57:31;;;;;;;0.10;0.10;;;14.70;88.80;;;;;;5003868;28;20896;-76
2022/09/18 00:59:59;;;;;;;0.00;0.00;;;14.50;88.60;;;;;;5007854;28;20271;-76
2022/09/18 01:02:25;;;;;;;0.03;0.03;;;14.40;89.40;;;;;;5007541;28;20192;-76
2022/09/18 01:04:50;;;;;;;0.10;0.10;;;14.20;89.10;;;;;;4991255;28;20926;-75
2022/09/18 01:07:34;;;;;;;0.10;0.10;;;14.10;89.30;;;;;;5009797;28;20270;-75
2022/09/18 01:10:49;;;;;;;0.10;0.10;;;14.00;88.70;;;;;;5006512;28;20718;-75
2022/09/18 01:13:39;;;;;;;0.03;0.03;;;14.00;88.80;;;;;;4944976;29;20227;-76
2022/09/18 01:16:21;;;;;;;0.10;0.10;;;13.90;88.80;;;;;;4945105;29;20424;-77
2022/09/18 01:19:14;;;;;;;0.10;0.10;;;13.60;89.90;;;;;;4946307;29;20269;-77
2022/09/18 01:21:59;;;;;;;0.00;0.00;;;13.30;91.20;;;;;;4944291;29;20220;-77
2022/09/18 01:24:25;;;;;;;0.03;0.03;;;13.10;91.60;;;;;;4972520;28;20206;-76
2022/09/18 01:27:03;;;;;;;1.45;0.10;;;12.80;91.90;;;;;;4983623;28;20268;-76
2022/09/18 01:29:47;;;;;;;0.10;0.00;;;12.60;92.80;;;;;;4983958;28;20642;-76
2022/09/18 01:32:21;;;;;;;0.00;0.00;;;12.30;93.00;;;;;;4984863;28;20272;-77
2022/09/18 01:34:55;;;;;;;0.00;0.00;;;12.00;93.20;;;;;;4984696;28;20285;-77
2022/09/18 01:37:44;;;;;;;0.00;0.00;;;12.00;93.40;;;;;;4983907;28;20605;-77
2022/09/18 01:40:15;;;;;;;0.43;0.00;;;11.70;94.70;;;;;;4983328;28;20628;-77
2022/09/18 01:42:45;;;;;;;0.00;0.00;;;11.60;95.00;;;;;;4966517;28;20193;-77
2022/09/18 01:45:15;;;;;;;0.00;0.00;;;11.60;95.20;;;;;;4983888;28;20675;-76
2022/09/18 01:47:48;;;;;;;0.00;0.00;;;11.60;95.60;;;;;;5035004;28;20195;-77
2022/09/18 01:50:16;;;;;;;1.13;0.00;;;11.70;95.00;;;;;;5049345;28;20579;-75
2022/09/18 01:52:51;;;;;;;0.00;0.00;;;11.60;95.00;;;;;;5057953;28;20653;-77
2022/09/18 01:55:21;;;;;;;0.00;0.00;;;11.60;95.30;;;;;;5050179;28;20214;-76
2022/09/18 01:58:07;;;;;;;0.00;0.00;;;11.50;95.50;;;;;;5055696;28;20203;-76
2022/09/18 02:00:38;;;;;;;2.13;0.00;;;11.50;95.20;;;;;;5050038;28;20191;-77
2022/09/18 02:03:12;;;;;;;0.00;0.00;;;11.40;95.30;;;;;;5050481;28;20187;-75
2022/09/18 02:05:43;;;;;;;0.00;0.00;;;11.30;95.30;;;;;;5051007;28;20195;-76
2022/09/18 02:08:19;;;;;;;0.00;0.00;;;11.30;95.10;;;;;;5054448;28;20235;-76
2022/09/18 02:10:54;;;;;;;0.00;0.00;;;11.40;94.40;;;;;;5049978;28;20187;-76
2022/09/18 02:13:25;;;;;;;0.00;0.00;;;11.40;94.50;;;;;;5050427;28;20179;-78
2022/09/18 02:15:59;;;;;;;0.00;0.00;;;11.20;94.40;;;;;;5055262;28;20599;-77
2022/09/18 02:18:31;;;;;;;0.00;0.00;;;11.00;94.40;;;;;;5050900;28;20214;-77
2022/09/18 02:20:57;;;;;;;0.10;0.10;;;11.00;94.40;;;;;;5051421;28;20180;-77
2022/09/18 02:23:25;;;;;;;0.00;0.00;;;10.90;94.50;;;;;;5054011;28;20262;-77
2022/09/18 02:25:59;;;;;;;0.10;0.10;;;11.00;94.40;;;;;;5052657;28;20187;-77
2022/09/18 02:28:27;;;;;;;0.00;0.00;;;11.10;94.00;;;;;;5053745;28;20192;-77
2022/09/18 02:30:53;;;;;;;0.00;0.00;;;11.10;93.80;;;;;;5056513;28;20693;-77
2022/09/18 02:33:27;;;;;;;0.00;0.00;;;11.10;93.60;;;;;;5054112;28;20194;-77
2022/09/18 02:36:23;;;;;;;0.00;0.00;;;11.20;93.20;;;;;;5048672;28;20236;-77
2022/09/18 02:39:26;;;;;;;0.00;0.00;;;11.30;93.20;;;;;;5053076;28;20179;-77
2022/09/18 02:42:27;;;;;;;0.10;0.10;;;11.10;93.10;;;;;;5055306;28;20179;-77
2022/09/18 02:45:05;;;;;;;0.10;0.10;;;11.00;93.10;;;;;;5019323;28;20204;-77
2022/09/18 02:47:55;;;;;;;0.00;0.00;;;11.10;93.10;;;;;;5021991;28;20678;-76
2022/09/18 02:50:54;;;;;;;0.10;0.10;;;11.00;91.80;;;;;;5021611;28;20661;-76
2022/09/18 02:53:46;;;;;;;0.10;0.10;;;10.90;92.10;;;;;;5020630;28;20275;-76
2022/09/18 02:56:32;;;;;;;0.00;0.00;;;10.90;91.80;;;;;;4963408;28;20542;-75
2022/09/18 02:59:11;;;;;;;0.10;0.10;;;10.70;92.50;;;;;;4961343;28;20201;-76
2022/09/18 03:01:40;;;;;;;0.20;0.20;;;10.70;92.30;;;;;;4961664;28;20230;-76
2022/09/18 03:04:10;;;;;;;0.10;0.10;;;10.70;92.00;;;;;;4962206;28;20281;-76
2022/09/18 03:06:36;;;;;;;0.10;0.10;;;10.70;91.60;;;;;;4961399;28;20202;-76
2022/09/18 03:09:02;;;;;;;0.13;0.13;;;10.60;91.30;;;;;;4962939;28;20186;-77
2022/09/18 03:11:27;;;;;;;0.10;0.10;;;10.60;91.50;;;;;;4961567;28;20194;-77
2022/09/18 03:13:53;;;;;;;0.15;0.15;;;10.40;90.70;;;;;;4961553;28;20198;-76
2022/09/18 03:16:19;;;;;;;0.10;0.10;;;10.50;91.30;;;;;;4959900;28;20222;-77
2022/09/18 03:18:44;;;;;;;0.20;0.20;;;10.60;91.00;;;;;;4960852;28;20187;-75
2022/09/18 03:21:10;;;;;;;0.10;0.10;;;10.60;90.90;;;;;;4998407;28;20309;-76
2022/09/18 03:23:36;;;;;;;0.20;0.20;;;10.70;90.60;;;;;;5008302;28;20193;-76
2022/09/18 03:26:02;;;;;;;0.10;0.10;;;10.60;90.40;;;;;;4991419;28;20196;-76
2022/09/18 03:28:30;;;;;;;0.10;0.10;;;10.70;90.50;;;;;;4989591;28;20745;-76
2022/09/18 03:30:56;;;;;;;0.10;0.10;;;10.80;90.70;;;;;;4987484;28;20209;-76
2022/09/18 03:33:22;;;;;;;0.10;0.10;;;10.80;90.50;;;;;;5030124;28;20262;-76
2022/09/18 03:35:47;;;;;;;0.10;0.10;;;10.80;90.20;;;;;;5051523;28;20665;-77
2022/09/18 03:38:13;;;;;;;0.20;0.20;;;10.70;89.90;;;;;;5047992;28;20665;-77
2022/09/18 03:40:43;;;;;;;0.10;0.10;;;10.60;89.50;;;;;;5050390;28;20187;-76
2022/09/18 03:43:09;;;;;;;0.20;0.20;;;10.60;89.70;;;;;;5051708;28;20202;-76
2022/09/18 03:45:34;;;;;;;0.20;0.20;;;10.60;89.60;;;;;;5050706;28;20179;-76
2022/09/18 03:48:02;;;;;;;0.20;0.20;;;10.60;89.50;;;;;;5043779;28;20295;-76
2022/09/18 03:50:27;;;;;;;0.15;0.15;;;10.60;89.30;;;;;;5052659;28;20183;-77
2022/09/18 03:52:53;;;;;;;0.30;0.30;;;10.60;89.30;;;;;;5050338;28;20591;-76
2022/09/18 03:55:19;;;;;;;0.10;0.10;;;10.60;88.80;;;;;;5048653;28;20182;-75
2022/09/18 03:57:45;;;;;;;0.20;0.20;;;10.40;89.00;;;;;;5042522;28;20598;-76
2022/09/18 04:00:13;;;;;;;0.20;0.20;;;10.60;89.30;;;;;;5045710;28;20271;-76
2022/09/18 04:02:38;;;;;;;0.20;0.20;;;10.60;89.40;;;;;;5048100;28;20179;-76
2022/09/18 04:05:04;;;;;;;0.25;0.25;;;10.60;89.20;;;;;;5050585;28;20187;-77
2022/09/18 04:07:30;;;;;;;0.30;0.30;;;10.50;89.30;;;;;;5056646;28;20195;-77
2022/09/18 04:09:57;;;;;;;0.30;0.30;;;10.60;89.10;;;;;;5051890;28;20683;-77
2022/09/18 04:12:23;;;;;;;0.20;0.20;;;10.60;89.00;;;;;;5050172;28;20184;-77
2022/09/18 04:14:48;;;;;;;0.20;0.20;;;10.60;89.00;;;;;;5049104;28;20187;-76
2022/09/18 04:17:14;;;;;;;0.80;0.40;;;10.70;88.90;;;;;;5050202;28;20281;-76
2022/09/18 04:19:40;;;;;;;0.20;0.20;;;10.70;88.90;;;;;;5048671;28;20277;-77
2022/09/18 04:22:06;;;;;;;0.30;0.30;;;10.70;88.90;;;;;;5047655;28;20180;-76
2022/09/18 04:24:31;;;;;;;0.30;0.30;;;10.70;88.10;;;;;;5051586;28;20179;-76
2022/09/18 04:26:57;;;;;;;0.20;0.20;;;10.60;88.40;;;;;;5051502;28;20198;-76
2022/09/18 04:29:23;;;;;;;0.22;0.22;;;10.60;88.40;;;;;;5052699;28;20229;-76
2022/09/18 04:31:48;;;;;;;0.30;0.30;;;10.60;88.80;;;;;;5054977;28;20564;-75
2022/09/18 04:34:14;;;;;;;0.20;0.20;;;10.60;88.70;;;;;;5051737;28;20179;-76
2022/09/18 04:36:40;;;;;;;0.30;0.30;;;10.60;89.00;;;;;;5050892;28;20221;-76
2022/09/18 04:39:06;;;;;;;0.30;0.30;;;10.70;89.10;;;;;;5056628;28;20288;-75
2022/09/18 04:41:31;;;;;;;0.30;0.30;;;10.70;89.40;;;;;;5054858;28;20191;-76
2022/09/18 04:43:57;;;;;;;0.30;0.30;;;10.70;89.30;;;;;;5054808;28;20635;-76
2022/09/18 04:46:23;;;;;;;0.20;0.20;;;10.70;89.60;;;;;;5056109;28;20254;-75
2022/09/18 04:48:49;;;;;;;0.40;0.40;;;10.80;89.50;;;;;;5053165;28;20493;-76
2022/09/18 04:51:14;;;;;;;0.30;0.30;;;10.70;89.60;;;;;;5058816;28;20179;-76
2022/09/18 04:53:40;;;;;;;0.20;0.20;;;10.70;90.00;;;;;;5057885;28;20241;-77
2022/09/18 04:56:06;;;;;;;0.40;0.38;;;10.60;90.10;;;;;;5054190;28;20605;-75
2022/09/18 04:58:32;;;;;;;0.20;0.20;;;10.70;90.20;;;;;;5056407;28;20672;-75
2022/09/18 05:00:58;;;;;;;0.30;0.30;;;10.60;90.40;;;;;;5055023;28;20214;-76
2022/09/18 05:03:24;;;;;;;0.20;0.20;;;10.50;90.50;;;;;;5053306;28;20201;-76
2022/09/18 05:05:50;;;;;;;0.20;0.20;;;10.50;90.40;;;;;;5057307;28;20179;-76
2022/09/18 05:08:16;;;;;;;0.20;0.20;;;10.60;90.40;;;;;;5053991;28;20270;-77
2022/09/18 05:10:42;;;;;;;0.20;0.20;;;10.60;90.30;;;;;;5053675;28;20263;-75
2022/09/18 05:13:08;;;;;;;0.20;0.20;;;10.50;90.50;;;;;;5053401;28;20576;-76
2022/09/18 05:15:34;;;;;;;0.20;0.20;;;10.50;90.40;;;;;;5053198;28;20219;-76
2022/09/18 05:18:01;;;;;;;0.30;0.30;;;10.60;90.10;;;;;;5053004;28;20242;-76
2022/09/18 05:20:28;;;;;;;0.30;0.30;;;10.50;90.00;;;;;;5054238;28;20214;-75
2022/09/18 05:22:53;;;;;;;0.22;0.22;;;10.50;90.00;;;;;;5056063;28;20188;-75
2022/09/18 05:25:19;;;;;;;0.30;0.30;;;10.60;90.10;;;;;;5049329;28;20557;-76
2022/09/18 05:27:53;;;;;;;0.30;0.30;;;10.40;90.00;;;;;;5051183;28;20210;-75
2022/09/18 05:30:19;;;;;;;0.43;0.35;;;10.30;90.10;;;;;;5053474;28;20253;-76
2022/09/18 05:32:56;;;;;;;0.30;0.30;;;10.40;90.50;;;;;;5052526;28;20183;-76
2022/09/18 05:35:23;;;;;;;0.30;0.30;;;10.40;90.20;;;;;;5051155;28;20710;-75
2022/09/18 05:37:53;;;;;;;0.40;0.40;;;10.60;90.20;;;;;;5051563;28;20776;-75
2022/09/18 05:40:22;;;;;;;0.30;0.30;;;10.60;89.40;;;;;;5049346;28;20183;-76
2022/09/18 05:42:49;;;;;;;0.40;0.40;;;10.60;88.80;;;;;;5053333;28;20184;-77
2022/09/18 05:45:15;;;;;;;0.20;0.20;;;10.60;88.80;;;;;;5052201;28;20214;-75
2022/09/18 05:47:41;;;;;;;0.30;0.30;;;10.50;88.40;;;;;;5057680;28;20255;-76
2022/09/18 05:50:08;;;;;;;0.20;0.20;;;10.50;88.50;;;;;;5050913;28;20623;-78
2022/09/18 05:52:35;;;;;;;0.25;0.25;;;10.60;88.40;;;;;;5051884;28;20673;-76
2022/09/18 05:55:01;;;;;;;0.40;0.30;;;10.60;88.50;;;;;;5051422;28;20187;-78
2022/09/18 05:57:27;;;;;;;0.40;0.40;;;10.60;87.90;;;;;;5051192;28;20222;-76
2022/09/18 05:59:52;;;;;;;0.40;0.40;;;10.60;87.90;;;;;;5054156;28;20736;-77
2022/09/18 06:02:18;;;;;;;0.40;0.40;;;10.70;88.10;;;;;;5050305;28;20232;-76
2022/09/18 06:04:44;;;;;;;0.40;0.40;;;10.70;87.70;;;;;;5053404;28;20634;-76
2022/09/18 06:07:11;;;;;;;0.40;0.40;;;10.60;87.50;;;;;;5053835;28;20192;-76
2022/09/18 06:09:38;;;;;;;0.30;0.30;;;10.60;87.20;;;;;;5053430;28;20194;-76
2022/09/18 06:12:04;;;;;;;0.20;0.20;;;10.60;87.20;;;;;;5051429;28;20224;-77
2022/09/18 06:14:30;;;;;;;0.43;0.40;;;10.60;87.40;;;;;;5043529;28;20175;-76
2022/09/18 06:16:55;;;;;;;0.30;0.30;;;10.70;87.60;;;;;;5045644;28;20211;-77
2022/09/18 06:19:21;;;;;;;1.85;0.30;;;10.70;87.10;;;;;;5046225;28;20218;-77
2022/09/18 06:21:46;;;;;;;2.83;0.40;;;10.70;87.10;;;;;;5049130;28;20180;-77
2022/09/18 06:24:12;;;;;;;0.75;0.20;;;10.80;87.10;;;;;;5053209;28;20182;-77
2022/09/18 06:26:38;;;;;;;0.30;0.30;;;10.70;86.90;;;;;;5050081;28;20218;-76
2022/09/18 06:29:03;;;;;;;0.32;0.32;;;10.70;87.20;;;;;;5047840;28;20187;-77
2022/09/18 06:31:29;;;;;;;1.75;0.32;;;10.90;87.30;;;;;;5052052;28;20206;-77
2022/09/18 06:33:55;;;;;;;0.30;0.30;;;10.80;86.80;;;;;;5046780;28;20183;-77
2022/09/18 06:36:21;;;;;;;3.60;0.32;;;10.90;86.80;;;;;;5048717;28;20241;-74
2022/09/18 06:38:49;;;;;;;0.30;0.30;;;10.90;86.70;;;;;;5050962;28;20192;-75
2022/09/18 06:41:15;;;;;;;0.20;0.20;;;10.90;86.60;;;;;;5054038;28;20183;-74
2022/09/18 06:43:41;;;;;;;0.20;0.20;;;11.00;86.40;;;;;;5047886;28;20210;-74
2022/09/18 06:46:09;;;;;;;0.30;0.30;;;10.90;86.00;;;;;;5049728;28;20191;-77
2022/09/18 06:48:35;;;;;;;0.20;0.20;;;10.90;85.80;;;;;;5046440;28;20203;-74
2022/09/18 06:51:00;;;;;;;0.25;0.25;;;10.90;86.00;;;;;;5052995;28;20745;-75
2022/09/18 06:53:26;;;;;;;0.57;0.20;;;11.00;85.90;;;;;;5054551;28;20244;-74
2022/09/18 06:55:56;;;;;;;0.20;0.20;;;11.10;85.80;;;;;;5047898;28;20210;-73
2022/09/18 06:58:22;;;;;;;0.30;0.30;;;11.10;85.80;;;;;;5046810;28;20198;-74
2022/09/18 07:00:48;;;;;;;0.20;0.20;;;11.20;86.00;;;;;;5049909;28;20187;-75
2022/09/18 07:03:14;;;;;;;0.20;0.20;;;11.20;85.70;;;;;;5052090;28;20210;-77
2022/09/18 07:05:41;;;;;;;0.20;0.20;;;11.40;85.40;;;;;;5052861;28;20187;-75
2022/09/18 07:08:08;;;;;;;0.52;0.30;;;11.30;84.20;;;;;;5049732;28;20188;-74
2022/09/18 07:10:33;;;;;;;0.20;0.20;;;11.40;84.30;;;;;;5052606;28;20184;-76
2022/09/18 07:13:01;;;;;;;0.20;0.20;;;11.40;83.20;;;;;;5052184;28;20194;-75
2022/09/18 07:15:27;;;;;;;0.25;0.25;;;11.30;82.50;;;;;;5046611;28;20240;-79
2022/09/18 07:17:57;;;;;;;0.20;0.20;;;11.30;81.70;;;;;;5049892;28;20932;-75
2022/09/18 07:20:23;;;;;;;0.38;0.20;;;11.40;81.80;;;;;;5047533;28;20750;-73
2022/09/18 07:22:58;;;;;;;0.22;0.22;;;11.40;81.50;;;;;;5046569;28;20188;-77
2022/09/18 07:25:25;;;;;;;0.30;0.30;;;11.50;81.60;;;;;;5049152;28;20580;-75
2022/09/18 07:27:51;;;;;;;0.30;0.30;;;11.50;81.10;;;;;;5049637;28;20194;-75
2022/09/18 07:30:19;;;;;;;0.30;0.30;;;11.50;81.30;;;;;;5053767;28;20186;-76
2022/09/18 07:32:45;;;;;;;0.20;0.20;;;11.60;81.90;;;;;;5049851;28;20226;-75
2022/09/18 07:35:12;;;;;;;0.30;0.30;;;11.80;81.60;;;;;;5048956;28;20744;-77
2022/09/18 07:37:38;;;;;;;0.32;0.30;;;11.80;81.40;;;;;;5052014;28;20217;-78
2022/09/18 07:40:08;;;;;;;0.40;0.40;;;11.90;81.70;;;;;;5056293;28;20183;-77
2022/09/18 07:42:34;;;;;;;0.35;0.35;;;11.90;81.10;;;;;;5048996;28;20651;-77
2022/09/18 07:45:00;;;;;;;0.30;0.30;;;11.90;81.50;;;;;;5053450;28;20184;-79
2022/09/18 07:47:26;;;;;;;1.27;0.40;;;12.00;81.00;;;;;;5056445;28;20183;-79
2022/09/18 07:49:53;;;;;;;0.30;0.30;;;11.90;80.90;;;;;;5053666;28;20237;-77
2022/09/18 07:52:19;;;;;;;0.40;0.40;;;11.90;80.10;;;;;;5051155;28;20187;-78
2022/09/18 07:54:44;;;;;;;1.88;0.30;;;12.00;80.10;;;;;;5050852;28;20194;-78
2022/09/18 07:57:10;;;;;;;0.40;0.40;;;12.10;79.60;;;;;;5052331;28;20222;-77
2022/09/18 07:59:36;;;;;;;0.30;0.30;;;12.10;79.20;;;;;;5055621;28;20186;-78
2022/09/18 08:02:03;;;;;;;0.30;0.30;;;12.20;78.50;;;;;;5055827;28;20209;-78
2022/09/18 08:04:28;;;;;;;0.25;0.25;;;12.40;79.70;;;;;;5052647;28;20656;-78
2022/09/18 08:06:56;;;;;;;0.20;0.20;;;12.40;79.00;;;;;;5052871;28;20241;-79
2022/09/18 08:09:22;;;;;;;0.20;0.20;;;12.40;78.40;;;;;;5059865;28;20178;-78
2022/09/18 08:11:51;;;;;;;0.70;0.30;;;12.40;78.50;;;;;;5056000;28;20182;-78
2022/09/18 08:14:16;;;;;;;0.20;0.20;;;12.50;78.50;;;;;;5054332;28;20306;-78
2022/09/18 08:16:42;;;;;;;0.30;0.30;;;12.80;79.10;;;;;;5049081;28;20755;-79
2022/09/18 08:19:08;;;;;;;0.20;0.20;;;12.90;77.10;;;;;;5050082;28;22376;-79
2022/09/18 08:21:34;;;;;;;0.20;0.20;;;12.90;76.50;;;;;;5050858;28;21084;-79
2022/09/18 08:23:59;;;;;;;0.20;0.20;;;12.80;76.20;;;;;;5053467;28;20237;-78
2022/09/18 08:26:25;;;;;;;0.20;0.20;;;13.00;76.80;;;;;;5060011;28;20190;-79
2022/09/18 08:28:51;;;;;;;0.30;0.30;;;13.30;76.70;;;;;;5052204;28;20186;-78
2022/09/18 08:31:17;;;;;;;0.30;0.30;;;13.80;75.00;;;;;;5053332;28;20218;-78
2022/09/18 08:33:43;;;;;;;0.22;0.22;;;13.90;73.10;;;;;;5053648;28;20214;-78
2022/09/18 08:36:09;;;;;;;0.40;0.40;;;14.00;74.30;;;;;;5056819;28;20629;-79
2022/09/18 08:38:35;;;;;;;0.30;0.30;;;14.30;74.20;;;;;;5056047;28;20282;-79
2022/09/18 08:41:28;;;;;;;0.40;0.40;;;14.50;73.90;;;;;;5050953;28;20219;-78
2022/09/18 08:44:17;;;;;;;0.20;0.20;;;14.70;73.00;;;;;;5057334;28;20196;-79
2022/09/18 08:46:50;;;;;;;0.20;0.20;;;14.90;71.60;;;;;;5060640;28;20233;-79
2022/09/18 08:49:28;;;;;;;0.15;0.15;;;15.00;71.90;;;;;;5055788;28;20187;-79
2022/09/18 08:52:02;;;;;;;0.30;0.30;;;14.90;71.50;;;;;;5056453;28;20189;-78
2022/09/18 08:54:32;;;;;;;0.57;0.40;;;15.00;73.40;;;;;;5054673;28;20222;-78
2022/09/18 08:57:03;;;;;;;0.38;0.38;;;15.50;72.90;;;;;;5048597;28;20598;-78
2022/09/18 08:59:41;;;;;;;0.30;0.30;;;16.00;72.40;;;;;;5056209;28;20961;-78
2022/09/18 09:02:22;;;;;;;0.20;0.20;;;16.30;70.00;;;;;;5057213;28;20175;-78
2022/09/18 09:04:48;;;;;;;1.08;0.32;;;16.20;69.80;;;;;;5054218;28;20195;-79
2022/09/18 09:07:16;;;;;;;0.20;0.20;;;15.90;70.60;;;;;;5058907;28;20297;-79
2022/09/18 09:09:53;;;;;;;0.38;0.38;;;15.80;70.40;;;;;;5057892;28;20183;-78
2022/09/18 09:12:34;;;;;;;0.30;0.30;;;15.60;69.70;;;;;;5053867;28;20183;-78
2022/09/18 09:15:08;;;;;;;0.28;0.28;;;15.40;69.90;;;;;;5049949;28;20932;-78
2022/09/18 09:17:47;;;;;;;0.20;0.20;;;15.30;69.60;;;;;;5052645;28;20213;-78
2022/09/18 09:20:36;;;;;;;1.60;0.30;;;15.30;69.30;;;;;;5052429;28;20187;-79
2022/09/18 09:23:06;;;;;;;0.30;0.30;;;15.10;70.80;;;;;;5013073;28;20204;-78
2022/09/18 09:26:02;;;;;;;0.20;0.20;;;14.90;70.70;;;;;;5005606;28;20581;-78
2022/09/18 09:28:40;;;;;;;0.20;0.20;;;14.90;71.20;;;;;;5021004;28;20267;-78
2022/09/18 09:31:09;;;;;;;0.40;0.40;;;14.90;71.20;;;;;;5014253;28;20239;-79
2022/09/18 09:34:00;;;;;;;2.28;0.30;;;14.70;70.70;;;;;;5017023;28;20197;-78
2022/09/18 09:36:30;;;;;;;0.20;0.20;;;14.60;71.30;;;;;;4992115;28;20226;-78
2022/09/18 09:38:58;;;;;;;0.30;0.30;;;14.20;71.30;;;;;;4993674;28;20281;-78
2022/09/18 09:41:33;;;;;;;0.30;0.30;;;14.10;71.40;;;;;;4987278;28;20746;-77
2022/09/18 09:44:22;;;;;;;0.40;0.40;;;13.90;72.10;;;;;;4990328;28;20216;-78
2022/09/18 09:47:34;;;;;;;0.30;0.30;;;14.00;72.40;;;;;;4993337;28;20311;-76
2022/09/18 09:50:15;;;;;;;0.60;0.60;;;13.90;71.80;;;;;;4956621;28;20566;-77
2022/09/18 09:52:43;;;;;;;0.30;0.30;;;13.70;72.10;;;;;;4968970;28;20702;-77
2022/09/18 09:55:31;;;;;;;0.40;0.40;;;13.60;72.40;;;;;;4956979;28;20182;-77
2022/09/18 09:58:32;;;;;;;0.52;0.52;;;13.50;72.70;;;;;;4967193;28;20907;-78
2022/09/18 10:01:31;;;;;;;0.52;0.52;;;13.50;73.00;;;;;;4950168;28;20290;-78
2022/09/18 10:04:27;;;;;;;0.75;0.75;;;13.40;73.70;;;;;;4968556;28;20190;-76
2022/09/18 10:07:00;;;;;;;0.77;0.77;;;13.50;73.80;;;;;;4966666;28;20194;-76
2022/09/18 10:09:57;;;;;;;0.80;0.80;;;13.60;74.10;;;;;;4967756;28;20190;-74
2022/09/18 10:12:36;;;;;;;0.80;0.80;;;13.60;74.40;;;;;;4974062;28;20224;-78
2022/09/18 10:15:16;;;;;;;0.90;0.90;;;13.70;74.30;;;;;;5011758;28;20656;-78
2022/09/18 10:17:44;;;;;;;0.82;0.82;;;13.80;74.00;;;;;;5013244;28;20317;-78
2022/09/18 10:20:20;;;;;;;0.98;0.98;;;13.90;73.90;;;;;;5014351;28;21626;-78
2022/09/18 10:22:47;;;;;;;2.05;0.95;;;14.00;73.60;;;;;;5013439;28;20192;-79
2022/09/18 10:25:22;;;;;;;1.40;1.00;;;13.90;73.40;;;;;;5013453;28;20278;-78
2022/09/18 10:27:47;;;;;;;0.90;0.90;;;13.80;73.40;;;;;;5056438;28;20383;-79
2022/09/18 10:30:13;;;;;;;0.77;0.77;;;13.70;74.10;;;;;;5051957;28;20948;-78
2022/09/18 10:32:42;;;;;;;1.13;1.02;;;13.60;74.00;;;;;;5053772;28;20262;-78
2022/09/18 10:35:41;;;;;;;1.00;1.00;;;13.70;74.60;;;;;;5055778;28;20795;-78
2022/09/18 10:38:38;;;;;;;1.05;1.05;;;13.80;73.90;;;;;;5018307;28;20311;-77
2022/09/18 10:41:26;;;;;;;1.20;1.20;;;13.90;73.90;;;;;;4975759;28;20209;-76
2022/09/18 10:44:27;;;;;;;1.20;1.20;;;14.50;73.40;;;;;;4973603;28;20193;-78
2022/09/18 10:47:09;;;;;;;1.27;1.27;;;15.40;71.50;;;;;;4918175;29;20338;-77
2022/09/18 10:49:55;;;;;;;1.60;1.50;;;15.90;69.60;;;;;;4925926;29;20204;-79
2022/09/18 10:52:35;;;;;;;2.05;1.40;;;16.10;69.10;;;;;;4888353;29;20245;-78
2022/09/18 10:55:04;;;;;;;1.38;1.38;;;16.00;68.20;;;;;;4888175;29;20193;-77
2022/09/18 10:57:48;;;;;;;1.52;1.52;;;15.90;69.20;;;;;;4888356;29;20233;-79
2022/09/18 11:00:20;;;;;;;2.10;1.80;;;15.70;68.90;;;;;;4887374;29;20231;-78
2022/09/18 11:02:53;;;;;;;1.60;1.60;;;15.80;69.10;;;;;;4889178;29;20197;-78
2022/09/18 11:05:28;;;;;;;1.90;1.90;;;15.80;69.10;;;;;;4887772;29;20242;-78
2022/09/18 11:07:57;;;;;;;1.42;1.42;;;15.70;69.50;;;;;;4887549;29;20703;-78
2022/09/18 11:10:26;;;;;;;1.38;1.38;;;15.50;68.60;;;;;;4886237;29;20288;-78
2022/09/18 11:12:57;;;;;;;1.50;1.50;;;15.50;69.60;;;;;;4887214;29;20197;-79
2022/09/18 11:15:27;;;;;;;1.00;1.00;;;15.30;68.80;;;;;;4903661;29;20224;-77
2022/09/18 11:17:55;;;;;;;1.50;1.50;;;15.10;69.20;;;;;;4931028;29;20752;-78
2022/09/18 11:20:23;;;;;;;1.10;1.10;;;15.00;69.40;;;;;;4944792;29;20253;-76
2022/09/18 11:22:50;;;;;;;1.30;1.20;;;14.80;69.90;;;;;;4974280;28;20731;-77
2022/09/18 11:25:20;;;;;;;1.00;1.00;;;14.50;69.80;;;;;;4991527;28;20189;-78
2022/09/18 11:27:49;;;;;;;3.22;0.80;;;14.50;70.60;;;;;;4977607;28;20177;-78
2022/09/18 11:30:37;;;;;;;0.95;0.88;;;14.50;69.90;;;;;;5034907;28;20286;-78
2022/09/18 11:33:20;;;;;;;0.90;0.90;;;14.50;69.00;;;;;;5047757;28;20175;-78
2022/09/18 11:35:53;;;;;;;1.55;0.93;;;14.50;69.40;;;;;;5052770;28;20187;-77
2022/09/18 11:38:19;;;;;;;1.95;0.80;;;14.50;69.40;;;;;;5046862;28;20211;-78
2022/09/18 11:40:50;;;;;;;0.85;0.85;;;14.40;69.60;;;;;;5050585;28;20210;-78
2022/09/18 11:43:21;;;;;;;1.00;1.00;;;14.50;69.30;;;;;;5047647;28;20184;-79
2022/09/18 11:46:24;;;;;;;0.98;0.73;;;14.40;69.70;;;;;;5049151;28;20175;-79
2022/09/18 11:48:59;;;;;;;0.98;0.98;;;14.30;70.50;;;;;;5047681;28;20209;-76
2022/09/18 11:51:53;;;;;;;1.75;0.70;;;14.50;70.80;;;;;;5052659;28;20183;-77
2022/09/18 11:54:43;;;;;;;0.90;0.90;;;14.40;70.00;;;;;;5021184;28;20710;-77
2022/09/18 11:57:28;;;;;;;1.00;0.98;;;14.30;70.80;;;;;;5018680;28;20228;-77
2022/09/18 11:59:58;;;;;;;0.98;0.98;;;14.30;70.70;;;;;;5020881;28;20207;-77
2022/09/18 12:02:51;;;;;;;0.90;0.90;;;14.40;70.80;;;;;;5020970;28;20211;-77
2022/09/18 12:05:28;;;;;;;1.08;1.08;;;14.40;71.30;;;;;;5020474;28;20231;-77
2022/09/18 12:08:25;;;;;;;1.10;1.10;;;14.40;71.10;;;;;;5021724;28;20649;-77
2022/09/18 12:11:12;;;;;;;0.90;0.90;;;14.40;70.40;;;;;;5021904;28;20267;-78
2022/09/18 12:13:59;;;;;;;1.00;1.00;;;14.40;70.20;;;;;;5029709;28;20317;-78
2022/09/18 12:16:57;;;;;;;0.93;0.93;;;14.60;69.70;;;;;;5023851;28;20192;-78
2022/09/18 12:19:40;;;;;;;1.17;0.90;;;14.50;69.60;;;;;;5021251;28;20214;-77
2022/09/18 12:22:22;;;;;;;0.80;0.75;;;14.50;70.00;;;;;;5021517;28;20188;-77
2022/09/18 12:24:49;;;;;;;0.95;0.90;;;14.70;69.70;;;;;;5020435;28;20692;-74
2022/09/18 12:27:42;;;;;;;0.98;0.98;;;14.80;70.10;;;;;;5019942;28;20195;-79
2022/09/18 12:30:12;;;;;;;0.80;0.80;;;14.90;69.60;;;;;;5020516;28;20184;-77
2022/09/18 12:32:56;;;;;;;0.63;0.63;;;14.90;69.70;;;;;;5046399;28;20195;-77
2022/09/18 12:35:22;;;;;;;0.73;0.73;;;14.90;69.50;;;;;;5050063;28;20607;-77
2022/09/18 12:37:56;;;;;;;1.00;0.75;;;14.90;69.80;;;;;;5051207;28;20218;-77
2022/09/18 12:40:53;;;;;;;0.80;0.80;;;14.80;69.70;;;;;;5051177;28;20671;-78
2022/09/18 12:43:42;;;;;;;0.88;0.88;;;14.90;70.00;;;;;;5048080;28;20193;-78
2022/09/18 12:46:45;;;;;;;0.82;0.82;;;14.90;70.10;;;;;;5049086;28;20252;-78
2022/09/18 12:49:57;;;;;;;1.95;0.80;;;15.00;69.90;;;;;;5054029;28;20195;-77
2022/09/18 12:53:01;;;;;;;1.13;0.90;;;15.40;70.70;;;;;;4934195;29;20211;-77
2022/09/18 12:55:50;;;;;;;0.60;0.60;;;16.00;67.90;;;;;;4902770;29;20199;-77
2022/09/18 12:58:35;;;;;;;0.70;0.70;;;16.50;67.40;;;;;;4908150;29;20335;-79
2022/09/18 13:01:13;;;;;;;1.17;0.70;;;17.10;67.00;;;;;;4906691;29;20278;-77
2022/09/18 13:03:41;;;;;;;1.40;0.88;;;17.90;65.50;;;;;;4907367;29;20196;-77
2022/09/18 13:06:12;;;;;;;1.65;0.60;;;18.60;66.20;;;;;;4906365;29;20196;-77
2022/09/18 13:09:04;;;;;;;1.00;0.68;;;19.40;62.50;;;;;;4902375;29;20275;-76
2022/09/18 13:11:41;;;;;;;0.75;0.75;;;20.00;61.60;;;;;;4901605;29;20185;-79
2022/09/18 13:14:28;;;;;;;0.40;0.40;;;20.30;58.70;;;;;;4904406;29;20200;-77
2022/09/18 13:17:36;;;;;;;0.73;0.60;;;20.30;60.10;;;;;;4903803;29;20315;-77
2022/09/18 13:20:21;;;;;;;0.55;0.55;;;20.60;59.20;;;;;;4866270;29;20201;-77